Time;durP1;ratioP1;P1;durP2;ratioP2;P2;SDS_P1;SDS_P2;PMS_P1;PMS_P2;Temp;Humidity;BMP_temperature;BMP_pressure;BME280_temperature;BME280_humidity;BME280_pressure;Samples;Min_cycle;Max_cycle;Signal;HPM_P1;HPM_P2
2023/06/14 00:00:39;;;;;;;2.15;2.05;;;24.00;99.90;;;24.45;45.58;101366.44;4934771;29;20075;-60
2023/06/14 00:03:09;;;;;;;;;;;24.00;99.90;;;24.47;46.05;101372.63;4933626;29;20126;-59
2023/06/14 00:05:42;;;;;;;2.83;2.65;;;24.00;99.90;;;24.42;45.66;101360.31;4938356;29;19923;-59
2023/06/14 00:08:11;;;;;;;2.33;2.22;;;24.00;99.90;;;24.45;45.83;101373.69;4938615;29;20052;-61
2023/06/14 00:10:41;;;;;;;2.05;1.95;;;24.00;99.90;;;24.45;45.99;101373.69;4938307;29;20074;-59
2023/06/14 00:13:10;;;;;;;2.15;2.05;;;24.00;99.90;;;24.45;45.98;101371.00;4938233;29;20052;-59
2023/06/14 00:15:38;;;;;;;2.03;1.92;;;24.00;99.90;;;24.35;46.14;101372.44;4937980;29;20481;-60
2023/06/14 00:18:09;;;;;;;4.70;4.38;;;23.90;99.90;;;24.40;46.36;101378.47;4937777;29;20382;-59
2023/06/14 00:20:39;;;;;;;2.30;2.20;;;23.90;99.90;;;24.28;46.43;101376.41;4934837;29;20055;-59
2023/06/14 00:23:07;;;;;;;2.20;2.10;;;23.90;99.90;;;24.25;46.44;101372.06;4937891;29;20052;-59
2023/06/14 00:25:35;;;;;;;3.03;2.88;;;23.80;99.90;;;24.01;46.54;101387.69;4937673;29;20172;-59
2023/06/14 00:28:04;;;;;;;2.42;2.33;;;23.60;99.90;;;24.01;47.08;101379.56;4937960;29;20051;-59
2023/06/14 00:30:33;;;;;;;2.35;2.25;;;23.60;99.90;;;24.00;47.24;101379.66;4937912;29;20123;-59
2023/06/14 00:33:03;;;;;;;2.97;2.78;;;23.60;99.90;;;23.95;47.53;101392.50;4937829;29;20052;-59
2023/06/14 00:35:33;;;;;;;2.38;2.28;;;23.50;99.90;;;23.94;47.17;101371.84;4937825;29;20082;-59
2023/06/14 00:38:01;;;;;;;2.50;2.40;;;23.50;99.90;;;23.93;47.68;101387.19;4937992;29;20055;-59
2023/06/14 00:40:29;;;;;;;2.33;2.22;;;23.50;99.90;;;23.94;47.84;101372.72;4936582;29;20134;-60
2023/06/14 00:42:58;;;;;;;2.10;2.00;;;23.50;99.90;;;23.98;47.93;101378.88;4934235;29;20055;-59
2023/06/14 00:45:26;;;;;;;2.13;2.03;;;23.50;99.90;;;23.82;47.91;101373.38;4937302;29;20098;-59
2023/06/14 00:47:56;;;;;;;2.60;2.50;;;23.50;99.90;;;23.73;48.22;101370.25;4937638;29;20052;-60
2023/06/14 00:50:26;;;;;;;2.15;2.05;;;23.30;99.90;;;23.71;48.62;101374.88;4936227;29;20146;-59
2023/06/14 00:52:56;;;;;;;2.40;2.30;;;23.30;99.90;;;23.77;48.28;101378.09;4928617;29;20052;-59
2023/06/14 00:55:25;;;;;;;2.42;2.33;;;23.40;99.90;;;23.70;48.45;101379.38;4937492;29;20067;-59
2023/06/14 00:57:57;;;;;;;2.17;2.08;;;23.20;99.90;;;23.69;48.68;101372.22;4937425;29;20122;-59
2023/06/14 01:00:25;;;;;;;2.17;2.08;;;23.30;99.90;;;23.68;48.79;101367.78;4933747;29;20087;-59
2023/06/14 01:02:56;;;;;;;;;;;23.20;99.90;;;23.62;48.78;101368.09;4937747;29;20066;-59
2023/06/14 01:05:25;;;;;;;2.60;2.50;;;23.20;99.90;;;23.56;48.81;101362.97;4937181;29;20366;-59
2023/06/14 01:08:12;;;;;;;1.90;1.80;;;23.20;99.90;;;23.60;48.67;101371.81;4936003;29;20051;-59
2023/06/14 01:10:52;;;;;;;2.28;2.17;;;23.20;99.90;;;23.51;48.35;101369.56;4934092;29;20059;-59
2023/06/14 01:13:28;;;;;;;2.25;2.15;;;23.10;99.90;;;23.35;49.11;101366.75;4935531;29;20052;-59
2023/06/14 01:15:57;;;;;;;2.28;2.17;;;22.90;99.90;;;23.28;48.78;101368.88;4916920;29;20410;-59
2023/06/14 01:18:25;;;;;;;2.35;2.25;;;22.90;99.90;;;23.22;48.94;101358.34;4933705;29;20078;-59
2023/06/14 01:20:55;;;;;;;2.30;2.20;;;22.80;99.90;;;23.19;48.81;101354.91;4937068;29;20051;-59
2023/06/14 01:23:32;;;;;;;;;;;22.80;99.90;;;23.01;48.93;101331.53;4928512;29;20051;-59
2023/06/14 01:26:03;;;;;;;4.28;3.13;;;22.80;99.90;;;23.16;49.03;101358.66;4935610;29;19933;-59
2023/06/14 01:28:35;;;;;;;2.58;2.47;;;22.70;99.90;;;23.17;48.90;101354.13;4931976;29;20051;-60
2023/06/14 01:31:06;;;;;;;2.22;2.13;;;22.80;99.90;;;23.16;49.04;101363.16;4936858;29;20054;-59
2023/06/14 01:33:36;;;;;;;2.75;2.65;;;22.70;99.90;;;23.17;49.04;101364.94;4936834;29;20054;-59
2023/06/14 01:36:06;;;;;;;2.00;1.90;;;22.70;99.90;;;23.06;49.16;101372.66;4935487;29;20051;-59
2023/06/14 01:38:37;;;;;;;2.55;2.45;;;22.70;99.90;;;23.06;49.32;101370.84;4936763;29;20042;-59
2023/06/14 01:41:06;;;;;;;2.47;2.38;;;22.60;99.90;;;22.95;49.08;101369.59;4935395;29;20682;-59
2023/06/14 01:43:36;;;;;;;2.30;2.20;;;22.60;99.90;;;23.01;49.35;101369.31;4936632;29;20048;-59
2023/06/14 01:46:06;;;;;;;2.75;2.65;;;22.60;99.90;;;22.21;49.02;101225.63;4916317;29;20147;-58
2023/06/14 01:48:36;;;;;;;2.40;2.30;;;22.50;99.90;;;22.97;49.59;101360.50;4936469;29;20044;-59
2023/06/14 01:51:04;;;;;;;2.10;2.00;;;22.50;99.90;;;22.81;49.46;101358.56;4936459;29;20079;-59
2023/06/14 01:53:34;;;;;;;2.40;2.30;;;22.40;99.90;;;22.84;49.59;101355.75;4936385;29;20040;-60
2023/06/14 01:56:03;;;;;;;2.67;2.57;;;22.40;99.90;;;22.88;49.22;101358.22;4935055;29;20048;-59
2023/06/14 01:58:32;;;;;;;2.33;2.22;;;22.40;99.90;;;22.87;49.13;101363.69;4935035;29;20305;-59
2023/06/14 02:01:02;;;;;;;2.63;2.53;;;22.50;99.90;;;22.90;49.25;101361.72;4936026;29;20497;-59
2023/06/14 02:03:31;;;;;;;2.45;2.35;;;22.50;99.90;;;22.88;49.13;101352.81;4936470;29;20051;-59
2023/06/14 02:05:59;;;;;;;2.10;2.00;;;22.50;99.90;;;22.80;48.64;101360.38;4932472;29;20122;-60
2023/06/14 02:08:28;;;;;;;2.22;2.13;;;22.40;99.90;;;22.78;48.83;101366.81;4934890;29;20576;-59
2023/06/14 02:10:57;;;;;;;2.20;2.10;;;22.30;99.90;;;22.81;48.84;101369.38;4934840;29;20145;-59
2023/06/14 02:13:26;;;;;;;2.42;2.33;;;22.30;99.90;;;22.80;48.67;101365.78;4936333;29;20413;-59
2023/06/14 02:15:55;;;;;;;2.25;2.15;;;22.30;99.90;;;22.84;48.21;101366.53;4927141;29;20681;-59
2023/06/14 02:18:25;;;;;;;2.50;2.40;;;22.40;99.90;;;22.75;47.79;101357.03;4934399;29;20048;-59
2023/06/14 02:20:53;;;;;;;2.38;2.28;;;22.30;99.90;;;22.09;47.97;101254.97;4936291;29;20051;-59
2023/06/14 02:23:22;;;;;;;3.13;2.92;;;22.30;99.90;;;22.80;48.03;101368.47;4936021;29;20110;-60
2023/06/14 02:25:51;;;;;;;2.50;2.40;;;22.30;99.90;;;22.81;47.95;101366.66;4935420;29;20048;-60
2023/06/14 02:28:21;;;;;;;2.38;2.28;;;22.30;99.90;;;22.82;47.84;101358.50;4923491;29;20147;-59
2023/06/14 02:30:50;;;;;;;2.63;2.53;;;22.40;99.90;;;22.74;47.96;101362.50;4935563;29;20130;-59
2023/06/14 02:33:18;;;;;;;2.28;2.17;;;22.30;99.90;;;22.71;47.97;101368.91;4934507;29;20110;-59
2023/06/14 02:35:47;;;;;;;2.10;2.00;;;22.30;99.90;;;22.73;47.81;101375.13;4935466;29;20410;-59
2023/06/14 02:38:15;;;;;;;2.45;2.35;;;22.30;99.90;;;22.72;47.39;101367.09;4935480;29;20044;-58
2023/06/14 02:40:44;;;;;;;2.63;2.53;;;22.30;99.90;;;22.72;47.48;101369.81;4942729;29;20127;-59
2023/06/14 02:43:12;;;;;;;2.25;2.15;;;22.30;99.90;;;22.72;47.94;101361.72;4934364;29;20966;-59
2023/06/14 02:45:42;;;;;;;2.13;2.03;;;22.30;99.90;;;22.68;47.55;101366.38;4935315;29;20070;-59
2023/06/14 02:48:11;;;;;;;2.20;2.10;;;22.20;99.90;;;22.63;47.37;101370.25;4935592;29;20044;-59
2023/06/14 02:50:41;;;;;;;2.50;2.40;;;22.20;99.90;;;22.63;47.50;101363.00;4932332;29;20282;-59
2023/06/14 02:53:10;;;;;;;2.50;2.40;;;22.20;99.90;;;22.61;47.34;101364.88;4935562;29;20055;-59
2023/06/14 02:55:39;;;;;;;2.20;2.10;;;22.10;99.90;;;22.54;47.22;101355.31;4926594;29;20520;-59
2023/06/14 02:58:09;;;;;;;2.58;2.47;;;22.20;99.90;;;22.55;47.25;101369.69;4934293;29;20047;-59
2023/06/14 03:00:38;;;;;;;2.35;2.25;;;22.10;99.90;;;22.43;47.65;101374.66;4942514;29;20143;-59
2023/06/14 03:03:13;;;;;;;2.30;2.20;;;22.00;99.90;;;22.33;47.69;101375.16;4935180;29;20413;-60
2023/06/14 03:05:47;;;;;;;2.10;2.00;;;21.90;99.90;;;22.23;47.92;101347.72;4927557;29;20040;-59
2023/06/14 03:08:19;;;;;;;2.33;2.22;;;22.00;99.90;;;22.35;48.05;101376.84;4934212;29;20589;-59
2023/06/14 03:10:50;;;;;;;2.50;2.40;;;21.90;99.90;;;22.29;47.60;101379.81;4926467;29;20516;-58
2023/06/14 03:13:20;;;;;;;2.95;2.85;;;21.90;99.90;;;22.26;47.77;101381.78;4934103;29;20051;-59
2023/06/14 03:15:50;;;;;;;2.35;2.25;;;21.80;99.90;;;22.27;47.93;101386.22;4923491;29;20488;-59
2023/06/14 03:18:22;;;;;;;2.40;2.30;;;21.80;99.90;;;22.24;47.77;101387.22;4943155;29;20055;-59
2023/06/14 03:20:56;;;;;;;2.17;2.08;;;21.80;99.90;;;22.25;47.93;101388.09;4934146;29;20052;-58
2023/06/14 03:23:26;;;;;;;2.42;2.33;;;21.80;99.90;;;22.17;48.06;101380.34;4933950;29;20079;-59
2023/06/14 03:25:55;;;;;;;2.40;2.30;;;21.80;99.90;;;22.25;47.89;101397.06;4935127;29;20139;-59
2023/06/14 03:28:24;;;;;;;2.60;2.50;;;21.70;99.90;;;22.26;47.77;101404.19;4926403;29;20055;-59
2023/06/14 03:30:54;;;;;;;2.90;2.80;;;21.80;99.90;;;22.20;47.88;101390.13;4930843;29;20052;-59
2023/06/14 03:33:25;;;;;;;2.45;2.35;;;21.70;99.90;;;22.20;47.91;101407.16;4927203;29;20470;-59
2023/06/14 03:35:54;;;;;;;2.85;2.75;;;21.80;99.90;;;22.19;47.96;101404.53;4934005;29;20055;-59
2023/06/14 03:38:23;;;;;;;2.60;2.50;;;21.70;99.90;;;22.10;48.04;101399.56;4936234;29;20523;-59
2023/06/14 03:40:52;;;;;;;2.60;2.50;;;21.60;99.90;;;22.03;48.18;101407.00;4937258;29;20087;-59
2023/06/14 03:43:20;;;;;;;2.75;2.65;;;21.50;99.90;;;21.99;48.24;101412.63;4929833;29;20486;-59
2023/06/14 03:45:49;;;;;;;2.42;2.33;;;21.50;99.90;;;22.02;48.02;101413.38;4937438;29;20044;-59
2023/06/14 03:48:17;;;;;;;2.90;2.80;;;21.60;99.90;;;21.88;48.22;101409.47;4937481;29;20421;-58
2023/06/14 03:50:47;;;;;;;2.58;2.47;;;21.50;99.90;;;21.93;48.37;101407.50;4937403;29;20052;-59
2023/06/14 03:53:16;;;;;;;2.53;2.43;;;21.50;99.90;;;21.98;48.32;101409.03;4937385;29;20099;-59
2023/06/14 03:55:49;;;;;;;2.47;2.38;;;21.50;99.90;;;21.98;48.18;101414.44;4937314;29;20055;-59
2023/06/14 03:58:22;;;;;;;3.10;2.90;;;21.50;99.90;;;22.00;48.14;101414.34;4945522;29;20051;-59
2023/06/14 04:00:51;;;;;;;2.13;2.03;;;21.60;99.90;;;22.03;48.19;101419.59;4937147;29;20059;-59
2023/06/14 04:03:19;;;;;;;2.80;2.70;;;21.60;99.90;;;21.98;48.19;101419.81;4937186;29;20082;-59
2023/06/14 04:05:50;;;;;;;2.70;2.60;;;21.50;99.90;;;21.94;48.23;101414.63;4937005;29;20059;-59
2023/06/14 04:08:19;;;;;;;2.47;2.38;;;21.50;99.90;;;21.83;47.82;101423.16;4925814;29;20063;-59
2023/06/14 04:10:48;;;;;;;2.50;2.40;;;21.40;99.90;;;21.84;48.35;101416.81;4934762;29;20053;-59
2023/06/14 04:13:17;;;;;;;2.42;2.33;;;21.40;99.90;;;21.76;48.38;101418.91;4936965;29;20052;-59
2023/06/14 04:15:45;;;;;;;2.60;2.50;;;21.40;99.90;;;21.74;48.11;101430.72;4936886;29;20405;-59
2023/06/14 04:18:19;;;;;;;2.58;2.47;;;21.30;99.90;;;21.82;48.20;101424.09;4936946;29;20060;-59
2023/06/14 04:20:53;;;;;;;2.92;2.83;;;21.40;99.90;;;21.75;48.71;101425.28;4938122;29;20060;-59
2023/06/14 04:23:22;;;;;;;2.70;2.60;;;21.30;99.90;;;21.19;48.46;101327.09;4938141;29;20549;-59
2023/06/14 04:25:51;;;;;;;2.47;2.38;;;21.30;99.90;;;21.63;49.00;101425.75;4925485;29;20074;-59
2023/06/14 04:28:19;;;;;;;2.40;2.30;;;21.30;99.90;;;21.67;48.93;101422.00;4929081;29;20068;-59
2023/06/14 04:30:48;;;;;;;2.67;2.58;;;21.30;99.90;;;21.56;49.35;101422.44;4936650;29;20469;-59
2023/06/14 04:33:18;;;;;;;3.88;3.67;;;21.20;99.90;;;21.38;48.89;101425.00;4929033;29;20055;-60
2023/06/14 04:35:48;;;;;;;3.08;2.97;;;21.00;99.90;;;21.45;48.94;101431.88;4936499;29;20043;-59
2023/06/14 04:38:25;;;;;;;2.67;2.58;;;21.00;99.90;;;21.41;48.73;101424.88;4937739;29;20054;-61
2023/06/14 04:40:56;;;;;;;2.75;2.65;;;21.10;99.90;;;21.32;49.34;101431.50;4925368;29;20569;-60
2023/06/14 04:43:25;;;;;;;4.03;3.72;;;21.00;99.90;;;21.28;49.37;101429.00;4928886;29;20134;-59
2023/06/14 04:45:56;;;;;;;2.80;2.70;;;20.90;99.90;;;21.13;49.38;101424.22;4936227;29;20561;-60
2023/06/14 04:48:25;;;;;;;2.50;2.40;;;20.80;99.90;;;21.22;49.78;101430.13;4928421;29;20425;-59
2023/06/14 04:50:55;;;;;;;3.10;3.00;;;20.80;99.90;;;21.28;49.54;101427.19;4936432;29;20712;-59
2023/06/14 04:53:28;;;;;;;2.35;2.25;;;20.80;99.90;;;21.20;49.24;101431.09;4936253;29;20069;-59
2023/06/14 04:55:58;;;;;;;3.40;3.22;;;20.90;99.90;;;21.20;49.32;101428.41;4925128;29;20052;-59
2023/06/14 04:58:27;;;;;;;2.50;2.40;;;20.80;99.90;;;21.15;48.90;101411.59;4936151;29;20043;-60
2023/06/14 05:00:57;;;;;;;2.53;2.42;;;20.80;99.90;;;21.20;49.10;101425.72;4935998;29;20055;-59
2023/06/14 05:03:26;;;;;;;2.70;2.60;;;20.80;99.90;;;21.27;48.88;101422.72;4944097;29;20047;-59
2023/06/14 05:05:55;;;;;;;2.58;2.47;;;20.90;99.90;;;21.22;48.72;101431.91;4937024;29;20039;-59
2023/06/14 05:08:25;;;;;;;2.83;2.72;;;20.80;99.90;;;21.37;48.94;101436.69;4937440;29;20050;-61
2023/06/14 05:10:54;;;;;;;2.40;2.30;;;20.90;99.90;;;21.44;48.88;101436.41;4935959;29;20055;-61
2023/06/14 05:13:23;;;;;;;2.47;2.38;;;21.00;99.90;;;21.55;48.98;101434.16;4937134;29;20059;-61
2023/06/14 05:15:51;;;;;;;3.47;3.28;;;21.10;99.90;;;21.60;48.32;101444.75;4924303;29;20092;-61
2023/06/14 05:18:20;;;;;;;2.90;2.80;;;21.20;99.90;;;21.51;48.08;101431.63;4937084;29;20437;-61
2023/06/14 05:20:48;;;;;;;7.35;6.85;;;21.20;99.90;;;21.45;47.99;101437.28;4936740;29;20054;-61
2023/06/14 05:23:17;;;;;;;2.63;2.53;;;21.10;99.90;;;21.51;47.96;101448.69;4936697;29;20063;-61
2023/06/14 05:25:47;;;;;;;2.83;2.70;;;21.10;99.90;;;21.53;48.06;101446.81;4936930;29;20052;-61
2023/06/14 05:28:16;;;;;;;3.55;3.35;;;21.10;99.90;;;21.22;48.58;101443.56;4936895;29;20110;-62
2023/06/14 05:30:44;;;;;;;3.55;3.10;;;21.00;99.90;;;21.09;49.35;101460.25;4936578;29;20472;-61
2023/06/14 05:33:13;;;;;;;2.95;2.85;;;20.80;99.90;;;21.31;49.48;101455.81;4936490;29;20111;-61
2023/06/14 05:35:41;;;;;;;4.03;3.67;;;20.90;99.90;;;21.21;49.07;101452.59;4936405;29;20044;-61
2023/06/14 05:38:10;;;;;;;2.20;2.10;;;20.80;99.90;;;21.23;49.76;101458.78;4936383;29;20055;-62
2023/06/14 05:40:38;;;;;;;3.17;2.95;;;20.80;99.90;;;21.06;50.37;101450.47;4932865;29;20564;-61
2023/06/14 05:43:08;;;;;;;2.33;2.22;;;20.70;99.90;;;21.00;50.48;101449.81;4936237;29;20063;-61
2023/06/14 05:45:36;;;;;;;2.90;2.80;;;20.60;99.90;;;21.13;50.79;101451.13;4936236;29;20055;-61
2023/06/14 05:48:05;;;;;;;3.28;3.08;;;20.70;99.90;;;21.16;50.01;101457.25;4936350;29;20051;-61
2023/06/14 05:50:33;;;;;;;3.00;2.90;;;20.70;99.90;;;21.07;50.48;101460.31;4936346;29;20067;-61
2023/06/14 05:53:02;;;;;;;2.35;2.25;;;20.70;99.90;;;21.01;51.51;101462.34;4935884;29;20079;-61
2023/06/14 05:55:30;;;;;;;2.58;2.47;;;20.60;99.90;;;20.80;51.75;101463.13;4936401;29;20056;-61
2023/06/14 05:57:59;;;;;;;2.88;2.75;;;20.40;99.90;;;20.59;52.22;101460.31;4936017;29;20055;-61
2023/06/14 06:00:28;;;;;;;3.10;3.00;;;20.30;99.90;;;21.02;51.98;101464.13;4935592;29;20079;-61
2023/06/14 06:02:57;;;;;;;2.67;2.57;;;20.50;99.90;;;21.19;51.08;101464.34;4931298;29;20086;-62
2023/06/14 06:05:26;;;;;;;2.85;2.75;;;20.70;99.90;;;21.21;51.11;101459.78;4935996;29;20378;-61
2023/06/14 06:07:55;;;;;;;3.08;2.88;;;20.70;99.90;;;21.34;50.87;101461.06;4935772;29;20115;-61
2023/06/14 06:10:24;;;;;;;3.40;3.28;;;20.90;99.90;;;21.43;50.73;101458.88;4935709;29;20481;-61
2023/06/14 06:12:54;;;;;;;3.97;3.53;;;21.00;99.90;;;21.45;50.20;101453.41;4935772;29;20103;-60
2023/06/14 06:15:22;;;;;;;2.67;2.58;;;21.10;99.90;;;21.51;50.05;101461.25;4936072;29;20100;-60
2023/06/14 06:17:52;;;;;;;2.58;2.47;;;21.10;99.90;;;21.66;49.64;101460.63;4935762;29;20130;-60
2023/06/14 06:20:27;;;;;;;2.72;2.63;;;21.20;99.90;;;21.84;49.68;101459.94;4935839;29;20055;-60
2023/06/14 06:22:58;;;;;;;2.70;2.60;;;21.40;99.90;;;21.99;49.34;101466.50;4932894;29;20146;-60
2023/06/14 06:25:27;;;;;;;2.30;2.20;;;21.50;99.90;;;21.99;49.27;101463.81;4936142;29;20118;-68
2023/06/14 06:27:57;;;;;;;2.33;2.22;;;21.70;99.90;;;22.14;48.58;101477.50;4935824;29;20098;-67
2023/06/14 06:30:26;;;;;;;3.35;3.15;;;21.70;99.90;;;22.24;48.80;101484.25;4935591;29;20055;-68
2023/06/14 06:32:56;;;;;;;2.70;2.60;;;21.80;99.90;;;21.95;48.95;101475.66;4935864;29;20524;-67
2023/06/14 06:35:25;;;;;;;2.75;2.65;;;21.60;99.90;;;21.92;49.24;101465.88;4935479;29;20544;-68
2023/06/14 06:37:53;;;;;;;3.58;3.38;;;21.60;99.90;;;21.98;48.40;101472.81;4935429;29;20494;-66
2023/06/14 06:40:22;;;;;;;3.40;3.15;;;21.60;99.90;;;21.99;48.55;101488.91;4931820;29;20051;-63
2023/06/14 06:42:50;;;;;;;3.50;3.30;;;21.60;99.90;;;22.02;48.87;101493.31;4935562;29;20047;-67
2023/06/14 06:45:20;;;;;;;2.47;2.38;;;21.60;99.90;;;22.29;48.68;101495.75;4926831;29;20063;-65
2023/06/14 06:47:52;;;;;;;2.55;2.45;;;21.80;99.90;;;22.28;48.23;101496.66;4935218;29;20090;-65
2023/06/14 06:50:24;;;;;;;2.72;2.63;;;21.90;99.90;;;22.54;48.41;101498.25;4935567;29;20052;-66
2023/06/14 06:52:54;;;;;;;2.70;2.53;;;22.10;99.90;;;21.71;47.61;101390.44;4931045;29;20056;-66
2023/06/14 06:55:22;;;;;;;2.70;2.60;;;22.00;99.90;;;22.35;48.19;101497.28;4935181;29;20059;-64
2023/06/14 06:57:52;;;;;;;2.70;2.60;;;21.90;99.90;;;22.54;47.71;101500.06;4931749;29;20505;-64
2023/06/14 07:00:21;;;;;;;2.70;2.60;;;22.10;99.90;;;22.66;47.51;101513.03;4935694;29;20083;-65
2023/06/14 07:02:50;;;;;;;2.40;2.30;;;22.20;99.90;;;22.90;47.01;101509.28;4935142;29;20485;-64
2023/06/14 07:05:19;;;;;;;2.53;2.42;;;22.40;99.90;;;23.02;46.46;101508.69;4935294;29;20119;-66
2023/06/14 07:07:49;;;;;;;2.83;2.72;;;22.60;99.90;;;22.84;46.69;101514.94;4935036;29;20051;-63
2023/06/14 07:10:18;;;;;;;2.67;2.58;;;22.50;99.90;;;23.08;47.02;101519.22;4935410;29;20461;-65
2023/06/14 07:12:46;;;;;;;2.60;2.50;;;22.60;99.90;;;23.05;46.64;101522.91;4938444;29;20103;-63
2023/06/14 07:15:15;;;;;;;2.25;2.15;;;22.70;99.90;;;23.28;46.26;101525.47;4939347;29;20075;-63
2023/06/14 07:17:43;;;;;;;2.60;2.50;;;22.80;99.90;;;22.88;47.11;101521.97;4935470;29;20043;-63
2023/06/14 07:20:15;;;;;;;2.60;2.50;;;22.60;99.90;;;23.22;46.83;101519.47;4935491;29;20463;-65
2023/06/14 07:22:44;;;;;;;2.40;2.30;;;22.80;99.90;;;23.23;46.29;101522.09;4938729;29;20062;-66
2023/06/14 07:25:14;;;;;;;2.30;2.20;;;22.90;99.90;;;23.29;46.36;101535.31;4938739;29;20397;-66
2023/06/14 07:27:47;;;;;;;2.25;2.15;;;22.90;99.90;;;23.51;45.75;101521.72;4938742;29;20448;-67
2023/06/14 07:30:15;;;;;;;2.97;2.78;;;23.00;99.90;;;23.45;46.23;101531.91;4937698;29;20056;-69
2023/06/14 07:32:43;;;;;;;2.63;2.53;;;23.10;99.90;;;23.23;46.68;101534.69;4938924;29;20044;-63
2023/06/14 07:35:14;;;;;;;2.55;2.45;;;22.90;99.90;;;23.56;45.96;101534.97;4938610;29;20051;-64
2023/06/14 07:37:46;;;;;;;2.63;2.53;;;23.10;99.90;;;23.22;46.30;101439.34;4935562;29;20137;-66
2023/06/14 07:40:16;;;;;;;2.35;2.25;;;23.30;99.90;;;24.00;45.92;101545.41;4938624;29;20056;-67
2023/06/14 07:42:45;;;;;;;2.97;2.78;;;23.50;99.90;;;23.90;45.51;101546.84;4938522;29;20047;-67
2023/06/14 07:45:16;;;;;;;2.53;2.20;;;23.50;99.90;;;23.66;46.76;101537.19;4938506;29;20044;-68
2023/06/14 07:47:45;;;;;;;3.63;3.33;;;23.30;99.90;;;23.37;45.72;101551.19;4938431;29;20051;-69
2023/06/14 07:50:14;;;;;;;4.65;3.72;;;23.10;99.90;;;23.08;48.33;101548.91;4938717;29;20043;-67
2023/06/14 07:52:43;;;;;;;2.40;2.30;;;22.70;99.90;;;23.47;47.04;101541.72;4934920;29;20381;-68
2023/06/14 07:55:11;;;;;;;2.20;2.10;;;22.90;99.90;;;23.75;45.98;101544.84;4938389;29;20387;-67
2023/06/14 07:57:42;;;;;;;2.30;2.20;;;23.20;99.90;;;23.96;45.70;101542.94;4938542;29;20039;-67
2023/06/14 08:00:15;;;;;;;2.47;2.38;;;23.50;99.90;;;24.05;44.90;101537.13;4937284;29;20051;-67
2023/06/14 08:02:44;;;;;;;3.40;3.20;;;23.60;99.90;;;24.16;45.06;101535.63;4938261;29;20134;-68
2023/06/14 08:05:13;;;;;;;2.20;2.10;;;23.70;99.90;;;24.39;44.32;101553.41;4938121;29;20050;-68
2023/06/14 08:07:42;;;;;;;2.13;2.03;;;24.00;99.90;;;24.29;44.85;101570.19;4938022;29;20052;-68
2023/06/14 08:10:11;;;;;;;2.50;2.40;;;24.00;99.90;;;24.38;43.79;101558.91;4934554;29;20074;-69
2023/06/14 08:12:40;;;;;;;2.85;2.75;;;24.00;99.90;;;24.66;42.51;101560.09;4934620;29;20556;-68
2023/06/14 08:15:10;;;;;;;2.92;2.72;;;24.20;99.90;;;24.49;42.70;101560.09;4938023;29;20048;-64
2023/06/14 08:17:44;;;;;;;2.03;1.92;;;24.10;99.90;;;24.03;44.26;101547.13;4938302;29;20056;-67
2023/06/14 08:20:16;;;;;;;2.55;2.45;;;23.70;99.90;;;24.30;42.79;101559.28;4938143;29;20099;-67
2023/06/14 08:22:47;;;;;;;2.05;1.95;;;23.80;99.90;;;24.39;43.03;101552.53;4937407;29;20060;-69
2023/06/14 08:25:16;;;;;;;2.45;2.35;;;23.90;99.90;;;24.58;42.17;101561.47;4934479;29;20122;-67
2023/06/14 08:27:46;;;;;;;11.63;3.20;;;24.10;99.90;;;24.64;43.18;101566.56;4937769;29;20048;-66
2023/06/14 08:30:17;;;;;;;2.55;2.45;;;24.20;99.90;;;24.40;42.73;101559.69;4937693;29;20044;-66
2023/06/14 08:32:45;;;;;;;2.45;2.35;;;24.00;99.90;;;24.48;43.07;101566.47;4938120;29;20103;-67
2023/06/14 08:35:19;;;;;;;3.03;2.83;;;24.00;99.90;;;24.30;43.09;101567.41;4937641;29;20047;-67
2023/06/14 08:37:48;;;;;;;7.13;3.30;;;23.90;99.90;;;24.32;43.21;101564.59;4937532;29;20476;-66
2023/06/14 08:40:21;;;;;;;2.78;2.67;;;23.80;99.90;;;24.04;43.74;101548.91;4937371;29;20414;-66
2023/06/14 08:42:53;;;;;;;2.85;2.65;;;23.70;99.90;;;24.23;43.64;101567.78;4934160;29;20414;-67
2023/06/14 08:45:22;;;;;;;2.88;2.67;;;23.70;99.90;;;24.45;43.76;101572.03;4937565;29;20405;-66
2023/06/14 08:47:57;;;;;;;12.23;3.10;;;23.90;99.90;;;24.38;42.64;101573.31;4937401;29;20051;-67
2023/06/14 08:50:29;;;;;;;2.75;2.63;;;23.90;99.90;;;24.27;42.13;101570.25;4937292;29;20054;-67
2023/06/14 08:53:03;;;;;;;3.20;3.00;;;23.90;99.90;;;24.34;42.63;101558.19;4934137;29;20052;-68
2023/06/14 08:55:33;;;;;;;3.30;3.05;;;23.80;99.90;;;24.29;41.51;101559.38;4937581;29;20058;-68
2023/06/14 08:58:09;;;;;;;2.35;2.25;;;23.90;99.90;;;24.39;42.94;101571.47;4937232;29;20051;-68
2023/06/14 09:00:38;;;;;;;2.28;2.17;;;23.90;99.90;;;24.63;42.46;101570.22;4937199;29;20047;-68
2023/06/14 09:03:13;;;;;;;2.10;2.00;;;24.10;99.90;;;24.84;43.29;101572.72;4933921;29;20126;-67
2023/06/14 09:05:41;;;;;;;7.72;3.10;;;24.30;99.90;;;24.79;41.66;101580.22;4936150;29;20504;-68
2023/06/14 09:08:10;;;;;;;2.42;2.30;;;24.40;99.90;;;24.73;42.03;101563.41;4937306;29;20044;-68
2023/06/14 09:10:41;;;;;;;3.08;2.80;;;24.30;99.90;;;24.72;41.08;101572.47;4936987;29;20044;-68
2023/06/14 09:13:11;;;;;;;2.28;2.15;;;24.40;99.90;;;24.87;41.92;101569.84;4936970;29;20051;-67
2023/06/14 09:15:39;;;;;;;2.40;2.30;;;24.40;99.90;;;25.15;41.42;101563.84;4936980;29;20054;-68
2023/06/14 09:18:08;;;;;;;2.72;2.63;;;24.70;99.90;;;25.01;40.40;101577.25;4936823;29;20309;-69
2023/06/14 09:20:36;;;;;;;2.33;2.22;;;24.60;99.90;;;24.67;41.76;101548.34;4933437;29;20110;-67
2023/06/14 09:23:06;;;;;;;3.20;2.95;;;24.40;99.90;;;24.77;40.79;101575.84;4936503;29;20056;-68
2023/06/14 09:25:43;;;;;;;2.90;2.80;;;24.40;99.90;;;24.73;41.90;101594.06;4936810;29;20079;-68
2023/06/14 09:28:15;;;;;;;4.13;3.78;;;24.30;99.90;;;24.76;41.45;101583.06;4936699;29;20465;-68
2023/06/14 09:30:43;;;;;;;3.63;3.33;;;24.30;99.90;;;24.75;40.88;101586.75;4936680;29;20058;-68
2023/06/14 09:33:17;;;;;;;2.75;2.65;;;24.30;99.90;;;24.89;41.65;101595.00;4936715;29;20413;-67
2023/06/14 09:35:47;;;;;;;2.63;2.53;;;24.40;99.90;;;24.94;41.61;101581.25;4933634;29;20107;-67
2023/06/14 09:38:15;;;;;;;3.00;2.80;;;24.40;99.90;;;25.00;40.03;101598.06;4936968;29;20122;-67
2023/06/14 09:40:43;;;;;;;2.83;2.67;;;24.60;99.90;;;24.92;40.56;101600.28;4936425;29;20043;-67
2023/06/14 09:43:13;;;;;;;6.70;6.07;;;24.40;99.90;;;25.00;40.14;101597.16;4936311;29;20086;-67
2023/06/14 09:45:45;;;;;;;3.17;2.80;;;24.50;99.90;;;25.10;41.56;101608.41;4927723;29;20060;-67
2023/06/14 09:48:17;;;;;;;2.30;2.20;;;24.60;99.90;;;25.34;40.72;101589.00;4936586;29;20051;-73
2023/06/14 09:50:48;;;;;;;2.42;2.33;;;24.80;99.90;;;25.46;40.40;101592.91;4933266;29;20131;-66
2023/06/14 09:53:18;;;;;;;9.30;8.57;;;25.00;99.90;;;25.70;38.99;101587.03;4936230;29;20095;-66
2023/06/14 09:55:49;;;;;;;2.38;2.28;;;25.20;99.90;;;25.74;38.42;101598.56;4936163;29;20047;-66
2023/06/14 09:58:21;;;;;;;;;;;25.30;99.90;;;25.43;40.26;101601.22;4936567;29;20470;-66
2023/06/14 10:00:52;;;;;;;7.32;5.25;;;25.10;99.90;;;25.14;39.93;101602.75;4936157;29;19927;-66
2023/06/14 10:03:28;;;;;;;2.10;2.00;;;24.70;99.90;;;24.73;40.33;101499.34;4916107;29;20044;-66
2023/06/14 10:06:06;;;;;;;2.33;2.20;;;24.80;99.90;;;25.49;40.11;101592.75;4936037;29;20044;-66
2023/06/14 10:08:37;;;;;;;3.53;3.22;;;25.00;99.90;;;25.19;39.67;101591.66;4935903;29;20379;-66
2023/06/14 10:11:05;;;;;;;2.92;2.72;;;24.90;99.90;;;25.31;40.09;101581.03;4932287;29;20047;-66
2023/06/14 10:13:36;;;;;;;2.22;2.13;;;24.80;99.90;;;25.40;40.07;101590.53;4932284;29;20047;-66
2023/06/14 10:16:13;;;;;;;4.13;3.42;;;25.00;99.90;;;25.28;38.66;101591.19;4935850;29;20051;-66
2023/06/14 10:18:51;;;;;;;2.20;2.10;;;24.80;99.90;;;25.33;40.67;101595.38;4936050;29;20047;-66
2023/06/14 10:21:28;;;;;;;2.20;2.10;;;24.80;99.90;;;25.22;38.92;101607.75;4932313;29;20052;-66
2023/06/14 10:24:02;;;;;;;2.70;2.60;;;24.80;99.90;;;25.34;39.81;101601.69;4936023;29;20055;-66